createdAt,value
2022-12-18T00:01:33.064Z,36.80
2022-12-18T00:04:54.974Z,29.43
2022-12-18T00:08:09.926Z,37.63
2022-12-18T00:11:27.946Z,31.30
2022-12-18T00:14:29.697Z,31.42
2022-12-18T00:17:44.038Z,44.72
2022-12-18T00:20:45.849Z,35.00
2022-12-18T00:24:01.011Z,33.85
2022-12-18T00:27:09.936Z,40.12
2022-12-18T00:30:24.933Z,36.50
2022-12-18T00:33:26.725Z,36.47
2022-12-18T00:36:42.958Z,36.73
2022-12-18T00:39:44.753Z,41.78
2022-12-18T00:42:59.933Z,41.83
2022-12-18T00:46:01.994Z,36.22
2022-12-18T00:49:21.065Z,37.30
2022-12-18T00:52:22.961Z,31.77
2022-12-18T00:55:39.069Z,35.38
2022-12-18T00:58:47.591Z,43.87
2022-12-18T01:02:02.074Z,33.03
2022-12-18T01:05:17.430Z,36.47
2022-12-18T01:08:31.989Z,38.30
2022-12-18T01:11:33.876Z,34.72
2022-12-18T01:14:48.958Z,33.33
2022-12-18T01:18:00.120Z,38.33
2022-12-18T01:21:10.230Z,37.38
2022-12-18T01:24:24.964Z,33.60
2022-12-18T01:27:41.969Z,35.50
2022-12-18T01:30:51.094Z,34.83
2022-12-18T01:34:00.938Z,34.33
2022-12-18T01:37:09.726Z,36.60
2022-12-18T01:40:17.984Z,36.07
2022-12-18T01:43:46.477Z,37.25
2022-12-18T01:46:55.025Z,38.70
2022-12-18T01:50:22.082Z,35.58
2022-12-18T01:53:30.778Z,33.40
2022-12-18T01:56:45.998Z,38.70
2022-12-18T01:59:53.088Z,33.97
2022-12-18T02:03:08.056Z,37.00
2022-12-18T02:06:30.373Z,37.08
2022-12-18T02:09:58.073Z,35.45
2022-12-18T02:13:23.978Z,31.87
2022-12-18T02:16:39.773Z,34.65
2022-12-18T02:20:16.037Z,37.08
2022-12-18T02:23:57.758Z,35.70
2022-12-18T02:27:15.005Z,40.88
2022-12-18T02:30:25.087Z,38.03
2022-12-18T02:33:37.100Z,38.67
2022-12-18T02:36:50.001Z,33.85
2022-12-18T02:40:07.983Z,35.55
2022-12-18T02:43:13.602Z,36.17
2022-12-18T02:46:39.010Z,36.43
2022-12-18T02:50:27.057Z,33.25
2022-12-18T02:53:53.053Z,35.35
2022-12-18T02:57:05.057Z,36.88
2022-12-18T03:00:43.038Z,34.08
2022-12-18T03:03:56.278Z,39.90
2022-12-18T03:07:26.065Z,34.22
2022-12-18T03:10:40.226Z,31.40
2022-12-18T03:14:00.023Z,35.33
2022-12-18T03:17:14.629Z,38.55
2022-12-18T03:20:28.069Z,37.53
2022-12-18T03:23:50.027Z,37.17
2022-12-18T03:27:02.053Z,32.83
2022-12-18T03:30:13.485Z,31.37
2022-12-18T03:33:29.058Z,31.67
2022-12-18T03:36:37.698Z,35.83
2022-12-18T03:39:46.017Z,33.03
2022-12-18T03:43:04.326Z,37.47
2022-12-18T03:46:31.167Z,33.65
2022-12-18T03:49:52.903Z,32.63
2022-12-18T03:53:11.025Z,37.73
2022-12-18T03:56:28.058Z,29.05
2022-12-18T03:59:38.001Z,32.45
2022-12-18T04:02:59.122Z,39.67
2022-12-18T04:06:02.705Z,31.17
2022-12-18T04:09:18.085Z,35.83
2022-12-18T04:12:19.955Z,33.47
2022-12-18T04:15:35.114Z,36.05
2022-12-18T04:18:37.393Z,34.78
2022-12-18T04:21:52.079Z,37.13
2022-12-18T04:25:00.011Z,35.83
2022-12-18T04:28:08.890Z,39.03
2022-12-18T04:31:17.078Z,33.15
2022-12-18T04:34:25.726Z,35.25
2022-12-18T04:37:34.125Z,31.25
2022-12-18T04:40:49.053Z,30.17
2022-12-18T04:43:50.897Z,32.92
2022-12-18T04:47:06.066Z,33.17
2022-12-18T04:50:15.102Z,33.83
2022-12-18T04:53:23.605Z,32.60
2022-12-18T04:56:32.033Z,37.27
2022-12-18T04:59:40.677Z,31.48
2022-12-18T05:02:49.213Z,32.78
2022-12-18T05:06:13.129Z,36.72
2022-12-18T05:09:15.004Z,32.20
2022-12-18T05:12:32.051Z,32.97
2022-12-18T05:15:34.443Z,33.08
2022-12-18T05:18:50.074Z,33.42
2022-12-18T05:21:58.750Z,29.55
2022-12-18T05:25:13.074Z,27.83
2022-12-18T05:28:21.138Z,29.63
2022-12-18T05:31:39.636Z,27.55
2022-12-18T05:34:41.778Z,34.17
2022-12-18T05:37:56.131Z,33.60
2022-12-18T05:40:58.565Z,31.37
2022-12-18T05:44:13.066Z,35.50
2022-12-18T05:47:21.050Z,29.12
2022-12-18T05:50:29.746Z,26.48
2022-12-18T05:53:38.353Z,27.27
2022-12-18T05:56:48.750Z,31.90
2022-12-18T05:59:57.075Z,35.13
2022-12-18T06:03:05.839Z,32.67
2022-12-18T06:06:25.090Z,34.88
2022-12-18T06:09:33.783Z,36.45
2022-12-18T06:12:48.053Z,33.17
2022-12-18T06:15:56.646Z,30.93
2022-12-18T06:19:13.085Z,32.50
2022-12-18T06:22:21.833Z,35.75
2022-12-18T06:25:30.109Z,35.30
2022-12-18T06:28:46.130Z,34.53
2022-12-18T06:31:54.184Z,36.90
2022-12-18T06:35:02.818Z,27.50
2022-12-18T06:38:17.134Z,27.40
2022-12-18T06:41:21.219Z,25.50
2022-12-18T06:44:36.116Z,27.90
2022-12-18T06:47:44.140Z,31.83
2022-12-18T06:50:59.120Z,30.73
2022-12-18T06:54:07.101Z,32.03
2022-12-18T06:57:22.086Z,32.25
2022-12-18T07:00:23.873Z,37.45
2022-12-18T07:03:40.607Z,34.20
2022-12-18T07:06:56.122Z,32.33
2022-12-18T07:10:06.504Z,37.13
2022-12-18T07:13:15.453Z,41.80
2022-12-18T07:16:25.672Z,35.78
2022-12-18T07:19:41.135Z,35.60
2022-12-18T07:22:54.730Z,34.72
2022-12-18T07:26:06.161Z,33.90
2022-12-18T07:29:21.142Z,36.40
2022-12-18T07:32:31.236Z,35.17
2022-12-18T07:35:41.118Z,40.90
2022-12-18T07:38:57.144Z,38.10
2022-12-18T07:41:59.030Z,35.28
2022-12-18T07:45:15.223Z,46.08
2022-12-18T07:48:23.843Z,37.38
2022-12-18T07:51:32.122Z,34.97
2022-12-18T07:54:41.037Z,43.78
2022-12-18T07:57:51.860Z,40.47
2022-12-18T08:01:07.775Z,39.03
2022-12-18T08:04:22.175Z,42.60
2022-12-18T08:07:44.130Z,37.43
2022-12-18T08:10:47.179Z,45.35
2022-12-18T08:14:03.239Z,42.85
2022-12-18T08:17:05.041Z,40.45
2022-12-18T08:20:21.172Z,46.72
2022-12-18T08:23:42.064Z,39.13
2022-12-18T08:27:06.785Z,38.00
2022-12-18T08:30:26.305Z,42.25
2022-12-18T08:33:28.308Z,37.80
2022-12-18T08:36:43.109Z,43.30
2022-12-18T08:39:45.153Z,40.30
2022-12-18T08:43:00.131Z,37.20
2022-12-18T08:46:01.963Z,38.17
2022-12-18T08:49:18.254Z,45.65
2022-12-18T08:52:20.003Z,40.20
2022-12-18T08:55:35.134Z,41.20
2022-12-18T08:58:36.991Z,43.00
2022-12-18T09:01:53.201Z,46.00
2022-12-18T09:05:15.152Z,43.08
2022-12-18T09:08:30.268Z,42.97
2022-12-18T09:11:39.059Z,48.67
2022-12-18T09:14:47.182Z,36.78
2022-12-18T09:18:02.159Z,40.80
2022-12-18T09:21:20.469Z,44.10
2022-12-18T09:24:36.197Z,51.25
2022-12-18T09:27:38.114Z,40.87
2022-12-18T09:30:56.416Z,51.80
2022-12-18T09:34:05.293Z,50.28
2022-12-18T09:37:17.182Z,42.25
2022-12-18T09:40:28.214Z,43.87
2022-12-18T09:43:43.426Z,40.00
2022-12-18T09:46:57.154Z,48.55
2022-12-18T09:50:34.250Z,40.53
2022-12-18T09:53:58.202Z,42.55
2022-12-18T09:57:13.234Z,44.80
2022-12-18T10:00:20.979Z,42.83
2022-12-18T10:03:39.282Z,45.28
2022-12-18T10:07:23.413Z,47.38
2022-12-18T10:10:42.534Z,43.78
2022-12-18T10:14:01.174Z,42.92
2022-12-18T10:17:27.516Z,45.77
2022-12-18T10:20:52.200Z,53.05
2022-12-18T10:24:32.242Z,41.35
2022-12-18T10:27:41.491Z,45.08
2022-12-18T10:30:56.259Z,41.88
2022-12-18T10:34:04.243Z,47.73
2022-12-18T10:37:25.224Z,47.03
2022-12-18T10:40:34.217Z,43.85
2022-12-18T10:43:42.742Z,40.05
2022-12-18T10:46:54.505Z,49.13
2022-12-18T10:50:04.313Z,54.07
2022-12-18T10:53:13.192Z,43.17
2022-12-18T10:56:22.351Z,44.30
2022-12-18T10:59:31.214Z,48.25
2022-12-18T11:02:46.430Z,44.85
2022-12-18T11:06:07.783Z,43.30
2022-12-18T11:09:29.236Z,45.33
2022-12-18T11:12:37.256Z,43.95
2022-12-18T11:15:46.439Z,41.78
2022-12-18T11:18:55.401Z,44.60
2022-12-18T11:22:21.550Z,46.30
2022-12-18T11:25:37.241Z,49.42
2022-12-18T11:29:14.459Z,40.63
2022-12-18T11:32:38.114Z,49.13
2022-12-18T11:36:12.215Z,50.30
2022-12-18T11:39:30.213Z,43.20
2022-12-18T11:42:55.226Z,40.53
2022-12-18T11:46:12.415Z,41.42
2022-12-18T11:49:34.385Z,50.08
2022-12-18T11:52:55.982Z,46.80
2022-12-18T11:56:19.707Z,49.27
2022-12-18T11:59:48.311Z,48.90
2022-12-18T12:03:16.372Z,40.20
2022-12-18T12:06:51.538Z,45.12
2022-12-18T12:10:31.297Z,36.25
2022-12-18T12:14:04.478Z,39.57
2022-12-18T12:17:33.242Z,41.83
2022-12-18T12:21:00.250Z,36.33
2022-12-18T12:24:39.696Z,34.50
2022-12-18T12:28:09.309Z,33.13
2022-12-18T12:31:35.027Z,32.57
2022-12-18T12:35:19.304Z,41.05
2022-12-18T12:38:28.166Z,33.50
2022-12-18T12:41:45.229Z,28.55
2022-12-18T12:45:00.291Z,37.58
2022-12-18T12:48:19.075Z,32.40
2022-12-18T12:51:34.295Z,25.67
2022-12-18T12:54:51.278Z,35.45
2022-12-18T12:58:16.406Z,38.53
2022-12-18T13:01:48.429Z,34.03
2022-12-18T13:05:05.538Z,39.53
2022-12-18T13:08:35.945Z,41.22
2022-12-18T13:11:43.386Z,38.08
2022-12-18T13:14:58.290Z,38.50
2022-12-18T13:18:24.322Z,41.97
2022-12-18T13:21:30.066Z,39.30
2022-12-18T13:24:45.302Z,40.90
2022-12-18T13:28:06.142Z,38.53
2022-12-18T13:32:01.359Z,46.30
2022-12-18T13:35:23.093Z,45.92
2022-12-18T13:38:42.322Z,48.43
2022-12-18T13:41:46.754Z,48.45
2022-12-18T13:45:01.383Z,52.83
2022-12-18T13:48:17.619Z,46.28
2022-12-18T13:51:28.258Z,52.72
2022-12-18T13:54:47.274Z,58.60
2022-12-18T13:57:49.241Z,60.20
2022-12-18T14:01:04.399Z,54.25
2022-12-18T14:04:11.151Z,52.58
2022-12-18T14:07:41.857Z,51.83
2022-12-18T14:10:58.302Z,52.77
2022-12-18T14:14:08.139Z,52.88
2022-12-18T14:17:23.293Z,48.08
2022-12-18T14:20:33.931Z,48.20
2022-12-18T14:23:47.282Z,52.22
2022-12-18T14:27:14.074Z,45.33
2022-12-18T14:30:35.318Z,44.35
2022-12-18T14:33:50.286Z,41.70
2022-12-18T14:37:00.449Z,45.15
2022-12-18T14:40:20.269Z,41.50
2022-12-18T14:43:32.273Z,46.67
2022-12-18T14:46:44.346Z,52.90
2022-12-18T14:49:59.305Z,48.03
2022-12-18T14:53:07.354Z,51.25
2022-12-18T14:56:27.303Z,52.38
2022-12-18T14:59:30.562Z,47.63
2022-12-18T15:02:45.542Z,57.30
2022-12-18T15:05:48.211Z,50.38
2022-12-18T15:09:28.462Z,48.97
2022-12-18T15:12:55.387Z,54.95
2022-12-18T15:16:10.378Z,55.53
2022-12-18T15:19:18.469Z,59.58
2022-12-18T15:22:31.000Z,51.92
2022-12-18T15:25:45.479Z,52.30
2022-12-18T15:28:57.600Z,55.90
2022-12-18T15:32:20.434Z,54.47
2022-12-18T15:35:32.353Z,49.38
2022-12-18T15:38:41.347Z,54.53
2022-12-18T15:41:50.451Z,62.33
2022-12-18T15:44:59.001Z,55.75
2022-12-18T15:48:07.414Z,49.17
2022-12-18T15:51:30.411Z,53.67
2022-12-18T15:54:39.020Z,53.53
2022-12-18T15:57:53.357Z,58.42
2022-12-18T16:00:57.222Z,46.17
2022-12-18T16:04:12.359Z,52.40
2022-12-18T16:07:30.542Z,65.82
2022-12-18T16:10:39.358Z,57.05
2022-12-18T16:13:54.363Z,58.42
2022-12-18T16:17:13.447Z,51.30
2022-12-18T16:20:18.506Z,52.00
2022-12-18T16:23:33.367Z,55.38
2022-12-18T16:26:41.350Z,55.95
2022-12-18T16:29:53.337Z,56.58
2022-12-18T16:33:02.313Z,60.83
2022-12-18T16:36:11.077Z,57.50
2022-12-18T16:39:19.337Z,54.47
2022-12-18T16:42:34.397Z,56.42
2022-12-18T16:45:42.963Z,61.03
2022-12-18T16:48:51.394Z,56.65
2022-12-18T16:52:00.245Z,52.93
2022-12-18T16:55:08.418Z,55.28
2022-12-18T16:58:17.014Z,62.15
2022-12-18T17:01:33.509Z,53.08
2022-12-18T17:04:35.381Z,53.90
2022-12-18T17:07:57.403Z,56.67
2022-12-18T17:11:16.448Z,61.70
2022-12-18T17:14:25.127Z,61.53
2022-12-18T17:17:33.390Z,64.28
2022-12-18T17:20:42.590Z,61.08
2022-12-18T17:23:57.373Z,70.70
2022-12-18T17:27:05.430Z,61.20
2022-12-18T17:30:20.426Z,62.08
2022-12-18T17:33:23.742Z,60.33
2022-12-18T17:36:39.394Z,66.93
2022-12-18T17:39:47.914Z,63.97
2022-12-18T17:42:59.406Z,56.60
2022-12-18T17:46:14.471Z,61.90
2022-12-18T17:49:23.338Z,65.00
2022-12-18T17:52:31.403Z,59.67
2022-12-18T17:55:40.055Z,64.93
2022-12-18T17:58:55.461Z,65.07
2022-12-18T18:02:10.587Z,64.20
2022-12-18T18:05:19.390Z,60.72
2022-12-18T18:08:42.457Z,62.38
2022-12-18T18:11:52.407Z,65.57
2022-12-18T18:15:09.468Z,64.18
2022-12-18T18:18:18.043Z,63.60
2022-12-18T18:21:35.460Z,65.65
2022-12-18T18:24:45.513Z,64.43
2022-12-18T18:28:02.430Z,64.10
2022-12-18T18:31:06.618Z,69.78
2022-12-18T18:34:25.427Z,67.60
2022-12-18T18:37:27.197Z,62.42
2022-12-18T18:40:42.390Z,64.80
2022-12-18T18:43:44.693Z,67.97
2022-12-18T18:47:03.594Z,60.30
2022-12-18T18:50:21.418Z,74.93
2022-12-18T18:53:23.509Z,67.18
2022-12-18T18:57:40.096Z,62.70
2022-12-18T19:00:01.194Z,61.53
2022-12-18T19:03:16.438Z,66.12
2022-12-18T19:06:22.282Z,62.70
2022-12-18T19:09:44.398Z,61.83
2022-12-18T19:12:53.102Z,56.97
2022-12-18T19:16:09.530Z,62.10
2022-12-18T19:19:18.390Z,59.53
2022-12-18T19:22:27.843Z,56.67
2022-12-18T19:25:45.519Z,61.65
2022-12-18T19:28:54.061Z,60.80
2022-12-18T19:32:03.473Z,59.93
2022-12-18T19:35:12.026Z,62.62
2022-12-18T19:38:20.434Z,58.92
2022-12-18T19:41:37.680Z,61.28
2022-12-18T19:44:53.580Z,58.00
2022-12-18T19:48:06.541Z,61.90
2022-12-18T19:51:25.460Z,63.03
2022-12-18T19:54:33.418Z,58.47
2022-12-18T19:57:48.535Z,55.67
2022-12-18T20:00:50.300Z,55.63
2022-12-18T20:04:06.507Z,50.73
2022-12-18T20:07:14.735Z,57.45
2022-12-18T20:10:29.478Z,61.45
2022-12-18T20:13:31.252Z,58.22
2022-12-18T20:16:47.576Z,65.62
2022-12-18T20:19:49.508Z,64.40
2022-12-18T20:23:04.428Z,65.53
2022-12-18T20:26:06.258Z,63.63
2022-12-18T20:29:24.570Z,69.12
2022-12-18T20:32:39.511Z,69.40
2022-12-18T20:35:48.123Z,69.70
2022-12-18T20:39:00.438Z,76.55
2022-12-18T20:42:16.466Z,75.40
2022-12-18T20:45:25.117Z,77.25
2022-12-18T20:48:34.454Z,72.93
2022-12-18T20:51:43.486Z,68.70
2022-12-18T20:54:51.501Z,73.53
2022-12-18T20:58:00.442Z,75.70
2022-12-18T21:01:15.834Z,70.60
2022-12-18T21:04:30.498Z,78.87
2022-12-18T21:07:38.911Z,80.63
2022-12-18T21:10:53.445Z,75.82
2022-12-18T21:13:57.501Z,77.15
2022-12-18T21:17:12.658Z,74.93
2022-12-18T21:20:22.478Z,74.05
2022-12-18T21:23:31.183Z,74.30
2022-12-18T21:26:46.481Z,75.20
2022-12-18T21:29:48.659Z,79.03
2022-12-18T21:33:05.623Z,67.68
2022-12-18T21:36:07.917Z,66.43
2022-12-18T21:39:23.561Z,65.97
2022-12-18T21:42:25.709Z,71.37
2022-12-18T21:45:40.537Z,66.75
2022-12-18T21:48:42.506Z,70.87
2022-12-18T21:52:02.534Z,74.68
2022-12-18T21:55:11.535Z,73.17
2022-12-18T21:58:20.049Z,76.10
2022-12-18T22:01:33.419Z,78.45
2022-12-18T22:04:46.705Z,72.47
2022-12-18T22:07:55.553Z,62.65
2022-12-18T22:11:04.467Z,72.67
2022-12-18T22:14:13.495Z,78.45
2022-12-18T22:17:28.498Z,69.60
2022-12-18T22:20:38.286Z,82.22
2022-12-18T22:24:00.482Z,79.32
2022-12-18T22:27:02.630Z,78.47
2022-12-18T22:30:18.965Z,73.30
2022-12-18T22:33:20.935Z,73.78
2022-12-18T22:36:45.657Z,76.45
2022-12-18T22:39:47.635Z,68.87
2022-12-18T22:43:02.803Z,69.97
2022-12-18T22:46:16.145Z,76.15
2022-12-18T22:49:32.514Z,77.78
2022-12-18T22:52:49.621Z,71.93
2022-12-18T22:55:57.490Z,74.10
2022-12-18T22:59:13.588Z,74.20
2022-12-18T23:02:15.510Z,68.40
2022-12-18T23:05:30.654Z,75.32
2022-12-18T23:08:39.052Z,67.65
2022-12-18T23:11:54.546Z,79.85
2022-12-18T23:14:56.486Z,71.30
2022-12-18T23:18:11.552Z,72.62
2022-12-18T23:21:22.538Z,71.20
2022-12-18T23:24:37.547Z,70.18
2022-12-18T23:27:45.547Z,69.43
2022-12-18T23:31:09.532Z,74.30
2022-12-18T23:34:27.569Z,62.90
2022-12-18T23:37:58.643Z,67.20
2022-12-18T23:41:04.626Z,67.45
2022-12-18T23:44:20.569Z,65.28
2022-12-18T23:47:22.373Z,63.60
2022-12-18T23:50:40.515Z,68.35
2022-12-18T23:53:43.075Z,60.67
2022-12-18T23:56:57.513Z,68.03
2022-12-18T23:59:59.535Z,70.20
